Time;durP1;ratioP1;P1;durP2;ratioP2;P2;SDS_P1;SDS_P2;PMS_P1;PMS_P2;Temp;Humidity;BMP_temperature;BMP_pressure;BME280_temperature;BME280_humidity;BME280_pressure;Samples;Min_cycle;Max_cycle;Signal;HPM_P1;HPM_P2
2021/07/10 00:02:09;;;;;;;464.40;163.55;;;;;;;-144.99;100.00;52309.50;5018566;28;20206;-61
2021/07/10 00:04:36;;;;;;;467.30;167.55;;;;;;;-144.99;100.00;52309.50;5010079;28;20202;-62
2021/07/10 00:07:04;;;;;;;467.42;165.23;;;;;;;-144.99;100.00;52313.56;5010775;28;20215;-62
2021/07/10 00:09:33;;;;;;;464.50;161.15;;;;;;;-144.99;100.00;52352.28;5011642;28;20347;-61
2021/07/10 00:11:59;;;;;;;467.17;162.23;;;;;;;-144.99;100.00;52293.19;5005178;28;20242;-62
2021/07/10 00:14:26;;;;;;;469.98;158.23;;;;;;;-144.99;100.00;52285.03;5007834;28;20210;-61
2021/07/10 00:16:53;;;;;;;469.90;164.77;;;;;;;-144.99;100.00;52301.34;5008755;28;20210;-60
2021/07/10 00:19:20;;;;;;;468.17;164.43;;;;;;;-144.99;100.00;52362.50;5007907;28;20231;-61
2021/07/10 00:21:46;;;;;;;471.80;163.20;;;;;;;-144.99;100.00;52317.66;5005618;28;20210;-61
2021/07/10 00:24:13;;;;;;;465.98;161.80;;;;;;;-144.99;100.00;52313.56;5005904;28;20806;-64
2021/07/10 00:26:41;;;;;;;466.65;164.10;;;;;;;-144.99;100.00;52317.66;5007910;28;20297;-63
2021/07/10 00:29:08;;;;;;;465.75;157.48;;;;;;;-144.99;100.00;52305.41;4999555;28;20328;-63
2021/07/10 00:31:34;;;;;;;467.98;162.40;;;;;;;-144.99;100.00;52295.22;5006542;28;20229;-63
2021/07/10 00:34:01;;;;;;;467.95;155.88;;;;;;;-144.99;100.00;52374.72;5007900;28;20205;-63
2021/07/10 00:36:27;;;;;;;467.55;160.88;;;;;;;-144.99;100.00;52313.56;5008012;28;20634;-62
2021/07/10 00:38:56;;;;;;;470.92;164.27;;;;;;;-144.99;100.00;52354.34;5006014;28;20215;-59
2021/07/10 00:41:22;;;;;;;469.08;160.45;;;;;;;-144.99;100.00;52323.75;5007720;28;20209;-60
2021/07/10 00:43:54;;;;;;;465.27;155.50;;;;;;;-144.99;100.00;52309.50;4664681;28;10001314;-63
2021/07/10 00:46:21;;;;;;;465.67;159.45;;;;;;;-144.99;100.00;52327.84;5006769;28;20207;-61
2021/07/10 00:48:48;;;;;;;465.17;160.35;;;;;;;-144.99;100.00;52327.84;5007766;28;20381;-61
2021/07/10 00:51:15;;;;;;;466.17;161.18;;;;;;;-144.99;100.00;52331.91;5009754;28;20670;-61
2021/07/10 00:53:41;;;;;;;463.70;154.25;;;;;;;-144.99;100.00;52285.03;5014417;28;20217;-61
2021/07/10 00:56:11;;;;;;;465.40;158.25;;;;;;;-144.99;100.00;52305.41;5018899;28;20217;-61
2021/07/10 00:58:38;;;;;;;465.95;153.93;;;;;;;-144.99;100.00;52291.16;5010665;28;20231;-60
2021/07/10 01:01:07;;;;;;;469.05;154.77;;;;;;;-144.99;100.00;52329.88;5025082;28;20233;-61
2021/07/10 01:03:37;;;;;;;464.80;153.65;;;;;;;-144.99;100.00;52350.25;5008475;28;20713;-60
2021/07/10 01:06:04;;;;;;;466.13;152.98;;;;;;;-144.99;100.00;52340.06;5017027;28;20208;-61
2021/07/10 01:08:34;;;;;;;465.27;155.50;;;;;;;-144.99;100.00;52346.19;5018877;28;20214;-62
2021/07/10 01:11:02;;;;;;;467.25;152.32;;;;;;;-144.99;100.00;52346.19;5019235;28;20256;-60
2021/07/10 01:13:28;;;;;;;468.75;154.52;;;;;;;-144.99;100.00;52319.69;5008566;28;20205;-61
2021/07/10 01:15:55;;;;;;;464.15;153.10;;;;;;;-144.99;100.00;52354.34;5017407;28;20217;-61
2021/07/10 01:18:23;;;;;;;463.20;155.98;;;;;;;-144.99;100.00;52342.09;5013709;28;20603;-62
2021/07/10 01:20:52;;;;;;;461.67;149.93;;;;;;;-144.99;100.00;52327.84;5021083;28;20726;-64
2021/07/10 01:23:19;;;;;;;465.73;152.98;;;;;;;-144.99;100.00;52346.19;5011339;28;20216;-65
2021/07/10 01:25:47;;;;;;;460.58;147.65;;;;;;;-144.99;100.00;52325.81;5006552;28;20209;-63
2021/07/10 01:28:16;;;;;;;465.15;149.45;;;;;;;-144.99;100.00;52325.81;5012189;28;20210;-63
2021/07/10 01:30:44;;;;;;;463.38;150.93;;;;;;;-144.99;100.00;52352.28;5013050;28;20226;-63
2021/07/10 01:33:11;;;;;;;466.35;151.80;;;;;;;-144.99;100.00;52329.88;5011543;28;20218;-63
2021/07/10 01:35:38;;;;;;;466.98;147.52;;;;;;;-144.99;100.00;52333.94;5015942;28;20217;-63
2021/07/10 01:38:07;;;;;;;462.77;150.38;;;;;;;-144.99;100.00;52313.56;5007495;28;20211;-63
2021/07/10 01:40:35;;;;;;;466.23;151.40;;;;;;;-144.99;100.00;52358.41;5007644;28;20249;-63
2021/07/10 01:43:03;;;;;;;467.60;148.73;;;;;;;-144.99;100.00;52289.13;5013108;28;20225;-64
2021/07/10 01:45:31;;;;;;;467.50;153.38;;;;;;;-144.99;100.00;52366.56;5011506;28;20209;-64
2021/07/10 01:47:58;;;;;;;463.63;150.50;;;;;;;-144.99;100.00;52342.09;5006986;28;20218;-62
2021/07/10 01:50:24;;;;;;;462.90;149.40;;;;;;;-144.99;100.00;52346.19;5007784;28;20227;-61
2021/07/10 01:52:51;;;;;;;334.70;98.22;;;;;;;-144.99;100.00;52303.38;5010770;28;20734;-60
2021/07/10 01:55:19;;;;;;;464.30;144.77;;;;;;;-144.99;100.00;52350.25;5011035;28;20608;-61
2021/07/10 01:57:47;;;;;;;334.92;99.25;;;;;;;-144.99;100.00;52323.75;5004728;28;20309;-60
2021/07/10 02:00:17;;;;;;;460.60;143.60;;;;;;;-144.99;100.00;52321.72;5010064;28;20230;-60
2021/07/10 02:02:43;;;;;;;464.33;143.70;;;;;;;-144.99;100.00;52317.66;5012511;28;20691;-61
2021/07/10 02:05:11;;;;;;;462.98;140.77;;;;;;;-144.99;100.00;52309.50;5084851;22;20230;-59
2021/07/10 02:07:38;;;;;;;460.27;138.90;;;;;;;-144.99;100.00;52344.16;5102393;28;20681;-59
2021/07/10 02:10:06;;;;;;;331.85;97.63;;;;;;;-144.99;100.00;52354.34;5093019;28;20224;-62
2021/07/10 02:12:34;;;;;;;461.38;137.82;;;;;;;-144.99;100.00;52329.88;5088979;28;20246;-59
2021/07/10 02:15:01;;;;;;;461.02;136.82;;;;;;;-144.99;100.00;52338.03;5093106;28;20203;-58
2021/07/10 02:17:27;;;;;;;459.35;140.20;;;;;;;-144.99;100.00;52370.63;5090349;28;20799;-58
2021/07/10 02:19:54;;;;;;;330.52;97.45;;;;;;;-144.99;100.00;52352.28;5089673;28;20234;-58
2021/07/10 02:22:20;;;;;;;465.17;135.82;;;;;;;-144.99;100.00;52321.72;5091439;28;20203;-58
2021/07/10 02:24:47;;;;;;;459.85;134.13;;;;;;;-144.99;100.00;52342.09;5088565;28;20222;-58
2021/07/10 02:27:13;;;;;;;456.20;140.25;;;;;;;-144.99;100.00;52329.88;5091222;28;20204;-58
2021/07/10 02:29:41;;;;;;;454.15;130.95;;;;;;;-144.99;100.00;52338.03;5084701;28;20278;-58
2021/07/10 02:32:08;;;;;;;459.52;132.88;;;;;;;-144.99;100.00;52333.94;5085239;28;20232;-58
2021/07/10 02:34:35;;;;;;;462.42;135.13;;;;;;;-144.99;100.00;52313.56;5088183;28;20212;-58
2021/07/10 02:37:01;;;;;;;325.77;93.57;;;;;;;-144.99;100.00;52325.81;5089040;28;20297;-59
2021/07/10 02:39:28;;;;;;;461.52;131.88;;;;;;;-144.99;100.00;52329.88;5087949;28;20229;-58
2021/07/10 02:41:55;;;;;;;454.67;134.70;;;;;;;-144.99;100.00;52342.09;5088377;28;20216;-58
2021/07/10 02:44:21;;;;;;;452.48;131.90;;;;;;;-144.99;100.00;52358.41;5089067;28;20227;-58
2021/07/10 02:46:49;;;;;;;449.58;130.15;;;;;;;-144.99;100.00;52366.56;5090742;28;20269;-58
2021/07/10 02:49:16;;;;;;;325.33;94.70;;;;;;;-144.99;100.00;52305.41;5094320;28;20226;-58
2021/07/10 02:51:42;;;;;;;450.23;133.98;;;;;;;-144.99;100.00;52342.09;5088942;28;20639;-58
2021/07/10 02:54:09;;;;;;;450.27;134.52;;;;;;;-144.99;100.00;52342.09;5086318;28;20215;-58
2021/07/10 02:56:35;;;;;;;452.55;136.77;;;;;;;-144.99;100.00;52333.94;5090883;28;20217;-58
2021/07/10 02:59:02;;;;;;;450.83;135.05;;;;;;;-144.99;100.00;52317.66;5088000;28;20238;-58
2021/07/10 03:01:28;;;;;;;452.42;134.90;;;;;;;-144.99;100.00;52378.78;5095239;28;20669;-58
2021/07/10 03:03:56;;;;;;;457.30;136.43;;;;;;;-144.99;100.00;52338.03;5088404;28;20219;-58
2021/07/10 03:06:23;;;;;;;451.48;139.68;;;;;;;-144.99;100.00;52333.94;5092778;28;20217;-58
2021/07/10 03:08:49;;;;;;;331.33;100.72;;;;;;;-144.99;100.00;52325.81;5091978;28;20572;-58
2021/07/10 03:11:16;;;;;;;448.63;130.20;;;;;;;-144.99;100.00;52329.88;5088537;28;20207;-58
2021/07/10 03:13:43;;;;;;;449.98;130.55;;;;;;;-144.99;100.00;52362.50;5089839;28;20207;-63
2021/07/10 03:16:10;;;;;;;452.42;131.43;;;;;;;-144.99;100.00;52366.56;5090742;28;20209;-58
2021/07/10 03:18:37;;;;;;;449.85;129.25;;;;;;;-144.99;100.00;52366.56;5085895;28;20210;-60
2021/07/10 03:21:05;;;;;;;447.15;129.90;;;;;;;-144.99;100.00;52346.19;5086570;28;20239;-59
2021/07/10 03:23:31;;;;;;;449.60;131.48;;;;;;;-144.99;100.00;52366.56;5086474;28;20203;-60
2021/07/10 03:25:58;;;;;;;323.75;96.45;;;;;;;-144.99;100.00;52301.34;5085056;28;20208;-60
2021/07/10 03:28:25;;;;;;;453.60;129.05;;;;;;;-144.99;100.00;52358.41;5087204;28;20298;-58
2021/07/10 03:30:52;;;;;;;321.67;92.25;;;;;;;-144.99;100.00;52321.72;5092067;28;20315;-58
2021/07/10 03:33:19;;;;;;;448.15;129.45;;;;;;;-144.99;100.00;52329.88;5084607;28;20234;-58
2021/07/10 03:35:46;;;;;;;323.23;92.75;;;;;;;-144.99;100.00;52372.69;5091058;28;20239;-58
2021/07/10 03:38:14;;;;;;;447.73;130.10;;;;;;;-144.99;100.00;52350.25;5089179;28;20215;-58
2021/07/10 03:40:40;;;;;;;323.17;91.38;;;;;;;-144.99;100.00;52325.81;5085654;28;20224;-59
2021/07/10 03:43:07;;;;;;;447.48;128.57;;;;;;;-144.99;100.00;52329.88;5091620;28;20567;-59
2021/07/10 03:45:34;;;;;;;450.30;126.63;;;;;;;-144.99;100.00;52362.50;5091071;28;20609;-59
2021/07/10 03:48:00;;;;;;;323.55;93.75;;;;;;;-144.99;100.00;52323.75;5085716;28;20207;-59
2021/07/10 03:50:28;;;;;;;445.15;125.97;;;;;;;-144.99;100.00;52323.75;5087811;28;20231;-59
2021/07/10 03:52:54;;;;;;;453.83;130.40;;;;;;;-144.99;100.00;52305.41;5086248;28;20289;-59
2021/07/10 03:55:22;;;;;;;447.10;129.85;;;;;;;-144.99;100.00;52321.72;5085354;28;20207;-58
2021/07/10 03:57:49;;;;;;;448.92;129.77;;;;;;;-144.99;100.00;52311.53;5088856;28;20215;-61
2021/07/10 04:00:18;;;;;;;450.75;131.70;;;;;;;-144.99;100.00;52333.94;5086393;28;20228;-61
2021/07/10 04:02:45;;;;;;;450.88;129.27;;;;;;;-144.99;99.81;52358.41;5086555;28;20206;-62
2021/07/10 04:05:12;;;;;;;325.42;94.47;;;;;;;-144.99;99.97;52329.88;5087251;28;20257;-61
2021/07/10 04:07:39;;;;;;;325.75;96.40;;;;;;;-144.99;99.88;52311.53;5092649;28;20215;-61
2021/07/10 04:10:08;;;;;;;448.10;127.95;;;;;;;-144.99;99.90;52325.81;5086886;28;20230;-61
2021/07/10 04:12:36;;;;;;;454.75;132.48;;;;;;;-144.99;100.00;52333.94;5086846;28;20227;-61
2021/07/10 04:15:02;;;;;;;451.73;130.30;;;;;;;-144.99;100.00;52329.88;5086068;28;20235;-61
2021/07/10 04:17:29;;;;;;;452.73;130.00;;;;;;;-144.99;99.83;52342.09;5086820;28;20555;-61
2021/07/10 04:19:56;;;;;;;454.25;129.60;;;;;;;-144.99;99.78;52358.41;5086979;28;20228;-61
2021/07/10 04:22:22;;;;;;;456.13;128.15;;;;;;;-144.99;99.90;52327.84;5087419;28;20570;-61
2021/07/10 04:24:50;;;;;;;459.15;130.45;;;;;;;-144.99;99.61;52360.44;5084860;28;20209;-61
2021/07/10 04:27:16;;;;;;;328.02;90.28;;;;;;;-144.99;99.79;52370.63;5085643;28;20700;-61
2021/07/10 04:29:47;;;;;;;453.65;125.38;;;;;;;-144.99;99.86;52342.09;5086032;28;20231;-61
2021/07/10 04:32:14;;;;;;;453.50;125.28;;;;;;;-144.99;99.84;52317.66;5088696;28;20220;-61
2021/07/10 04:34:41;;;;;;;452.08;125.28;;;;;;;-144.99;99.80;52354.34;5094802;28;20208;-60
2021/07/10 04:37:07;;;;;;;455.83;122.03;;;;;;;-144.99;99.09;52350.25;5090804;28;20208;-61
2021/07/10 04:39:34;;;;;;;328.08;90.35;;;;;;;-144.99;99.25;52319.69;5086728;28;20231;-61
2021/07/10 04:42:00;;;;;;;327.50;87.15;;;;;;;-144.99;99.08;52309.50;5086983;28;20196;-60
2021/07/10 04:44:27;;;;;;;454.95;121.82;;;;;;;-144.99;98.77;52350.25;5089125;28;20199;-60
2021/07/10 04:46:55;;;;;;;329.95;91.50;;;;;;;-144.99;98.61;52356.38;5087032;28;20216;-58
2021/07/10 04:49:21;;;;;;;331.98;89.47;;;;;;;-144.99;98.80;52309.50;5085781;28;20227;-57
2021/07/10 04:51:48;;;;;;;458.13;123.68;;;;;;;-144.99;98.59;52323.75;5086425;28;20204;-58
2021/07/10 04:54:14;;;;;;;330.65;88.30;;;;;;;-144.99;98.30;52358.41;5088229;28;20220;-58
2021/07/10 04:56:41;;;;;;;461.55;123.38;;;;;;;-144.99;98.03;52354.34;5089696;28;20219;-59
2021/07/10 04:59:07;;;;;;;460.27;122.25;;;;;;;-144.99;98.10;52342.09;5087517;28;20223;-59
2021/07/10 05:01:34;;;;;;;460.27;120.90;;;;;;;-144.99;97.92;52329.88;5090866;28;20199;-58
2021/07/10 05:04:02;;;;;;;459.13;121.43;;;;;;;-144.99;97.48;52364.53;5084771;28;20235;-60
2021/07/10 05:06:28;;;;;;;457.60;121.35;;;;;;;-144.99;97.43;52321.72;5083153;28;20210;-61
2021/07/10 05:08:55;;;;;;;460.67;122.57;;;;;;;-144.99;97.02;52366.56;5080211;28;20204;-60
2021/07/10 05:11:21;;;;;;;447.42;118.03;;;;;;;-144.99;96.80;52338.03;5081635;28;20208;-61
2021/07/10 05:13:48;;;;;;;330.58;86.72;;;;;;;-144.99;96.64;52317.66;5080189;28;20223;-60
2021/07/10 05:16:15;;;;;;;457.38;119.40;;;;;;;-144.99;96.88;52342.09;5080533;28;20215;-60
2021/07/10 05:18:41;;;;;;;460.08;120.32;;;;;;;-144.99;96.81;52350.25;5080535;28;20677;-59
2021/07/10 05:21:09;;;;;;;330.63;86.40;;;;;;;-144.99;97.13;52333.94;5080435;28;20215;-59
2021/07/10 05:23:35;;;;;;;459.05;120.68;;;;;;;-144.99;96.69;52333.94;5083212;28;20204;-60
2021/07/10 05:26:02;;;;;;;460.90;121.80;;;;;;;-144.99;96.31;52370.63;5080692;28;20204;-60
2021/07/10 05:28:28;;;;;;;460.58;121.07;;;;;;;-144.99;96.53;52321.72;5080477;28;20204;-60
2021/07/10 05:30:55;;;;;;;462.67;121.07;;;;;;;-144.99;96.15;52313.56;5077740;28;20220;-60
2021/07/10 05:33:23;;;;;;;332.02;87.40;;;;;;;-144.99;95.39;52325.81;5080616;28;20219;-60
2021/07/10 05:35:50;;;;;;;463.55;120.38;;;;;;;-144.99;94.86;52276.88;5078762;28;20591;-61
2021/07/10 05:38:18;;;;;;;464.58;121.72;;;;;;;-144.99;94.54;52321.72;5084282;28;20216;-61
2021/07/10 05:40:45;;;;;;;334.02;86.75;;;;;;;-144.99;94.20;52321.72;5082982;28;20270;-60
2021/07/10 05:43:11;;;;;;;464.42;118.57;;;;;;;-144.99;93.40;52305.41;5087334;28;20662;-60
2021/07/10 05:45:38;;;;;;;466.25;119.15;;;;;;;-144.99;93.01;52321.72;5083112;28;20209;-61
2021/07/10 05:48:06;;;;;;;339.25;88.72;;;;;;;-144.99;92.44;52299.31;5083389;28;20208;-61
2021/07/10 05:50:33;;;;;;;474.98;122.55;;;;;;;-144.99;91.68;52299.31;5083478;28;20305;-61
2021/07/10 05:53:01;;;;;;;477.60;124.20;;;;;;;-144.99;91.36;52285.03;5083850;28;20220;-62
2021/07/10 05:55:29;;;;;;;480.15;123.93;;;;;;;-144.99;91.46;52297.25;5085654;28;20209;-61
2021/07/10 05:57:55;;;;;;;346.13;90.80;;;;;;;-144.99;90.84;52309.50;5086577;28;20203;-61
2021/07/10 06:00:22;;;;;;;347.55;93.28;;;;;;;-144.99;90.97;52285.03;5078917;28;20239;-61
2021/07/10 06:02:48;;;;;;;487.67;126.75;;;;;;;-144.99;90.63;52297.25;5086617;28;20208;-62
2021/07/10 06:05:15;;;;;;;487.20;126.50;;;;;;;-144.99;90.33;52297.25;5082866;28;20209;-62
2021/07/10 06:07:41;;;;;;;350.60;92.25;;;;;;;-144.99;90.05;52305.41;5086651;28;20208;-61
2021/07/10 06:10:10;;;;;;;491.58;127.47;;;;;;;-144.99;89.56;52293.19;5083478;28;20232;-61
2021/07/10 06:12:38;;;;;;;493.38;125.85;;;;;;;-144.99;89.27;52297.25;5085461;28;20227;-61
2021/07/10 06:15:08;;;;;;;354.58;92.30;;;;;;;-144.99;89.42;52321.72;5084889;28;20676;-61
2021/07/10 06:17:34;;;;;;;498.00;129.38;;;;;;;-144.99;88.60;52295.22;5087321;28;20695;-61
2021/07/10 06:20:01;;;;;;;498.85;128.50;;;;;;;-144.99;88.87;52293.19;5083294;28;20232;-61
2021/07/10 06:22:27;;;;;;;360.52;95.22;;;;;;;-144.99;88.30;52305.41;5086333;28;20484;-57
2021/07/10 06:24:54;;;;;;;507.25;132.93;;;;;;;-144.99;88.27;52268.72;5086986;28;20223;-57
2021/07/10 06:27:20;;;;;;;513.40;135.82;;;;;;;-144.99;87.91;52280.97;5083815;28;20215;-57
2021/07/10 06:29:48;;;;;;;516.28;136.15;;;;;;;-144.99;87.27;52317.66;5079709;28;20259;-57
2021/07/10 06:32:15;;;;;;;524.22;136.82;;;;;;;-144.99;87.70;52283.00;5084531;28;20295;-57
2021/07/10 06:34:41;;;;;;;528.90;138.75;;;;;;;-144.99;87.67;52287.06;5083188;28;20204;-57
2021/07/10 06:37:08;;;;;;;538.35;142.98;;;;;;;-144.99;87.83;52301.34;5082847;28;20207;-57
2021/07/10 06:39:35;;;;;;;541.67;143.35;;;;;;;-144.99;87.63;52301.34;5081995;28;20224;-57
2021/07/10 06:42:01;;;;;;;539.97;139.82;;;;;;;-144.99;87.66;52297.25;5087168;28;20537;-57
2021/07/10 06:44:28;;;;;;;543.42;142.43;;;;;;;-144.99;87.83;52305.41;5085846;28;20572;-57
2021/07/10 06:46:56;;;;;;;542.47;141.88;;;;;;;-144.99;88.23;52295.22;5083942;28;20223;-56
2021/07/10 06:49:22;;;;;;;385.08;99.80;;;;;;;-144.99;88.55;52313.56;5084438;28;20228;-57
2021/07/10 06:51:49;;;;;;;542.50;141.20;;;;;;;-144.99;88.59;52315.59;5083663;28;20212;-57
2021/07/10 06:54:16;;;;;;;383.52;98.80;;;;;;;-144.99;88.25;52352.28;5083262;28;20224;-57
2021/07/10 06:56:42;;;;;;;539.13;133.90;;;;;;;-144.99;88.90;52329.88;5082294;28;20203;-57
2021/07/10 06:59:11;;;;;;;534.35;130.07;;;;;;;-144.99;88.95;52333.94;5086291;28;20223;-57
2021/07/10 07:01:37;;;;;;;377.63;87.93;;;;;;;-144.99;89.55;52321.72;5081061;28;20655;-58
2021/07/10 07:04:05;;;;;;;529.75;124.78;;;;;;;-144.99;89.30;52307.47;5083957;28;20212;-58
2021/07/10 07:06:32;;;;;;;520.33;118.88;;;;;;;-144.99;89.30;52342.09;5082171;28;20250;-59
2021/07/10 07:08:59;;;;;;;514.67;118.93;;;;;;;-144.99;88.89;52323.75;5084051;28;20674;-59
2021/07/10 07:11:25;;;;;;;377.55;91.85;;;;;;;-144.99;88.30;52331.91;5084594;28;20207;-59
2021/07/10 07:13:52;;;;;;;534.45;129.45;;;;;;;-144.99;88.36;52287.06;5082186;28;20219;-59
2021/07/10 07:16:18;;;;;;;538.17;130.15;;;;;;;-144.99;88.11;52329.88;5082502;28;20215;-60
2021/07/10 07:18:45;;;;;;;545.45;134.98;;;;;;;-144.99;87.66;52301.34;5079088;28;20209;-60
2021/07/10 07:21:13;;;;;;;545.47;132.75;;;;;;;-144.99;87.74;52362.50;5081465;28;20208;-59
2021/07/10 07:23:39;;;;;;;386.13;93.05;;;;;;;-144.99;87.22;52293.19;5082306;28;20192;-59
2021/07/10 07:26:06;;;;;;;550.65;134.98;;;;;;;-144.99;86.79;52313.56;5084629;28;20212;-59
2021/07/10 07:28:32;;;;;;;397.02;96.75;;;;;;;-144.99;87.09;52350.25;5083564;28;20204;-59
2021/07/10 07:30:59;;;;;;;559.50;133.25;;;;;;;-144.99;87.03;52317.66;5083872;28;20220;-60
2021/07/10 07:33:27;;;;;;;393.17;90.55;;;;;;;-144.99;86.77;52321.72;5081726;28;20232;-65
2021/07/10 07:35:54;;;;;;;565.53;135.50;;;;;;;-144.99;86.42;52333.94;5081361;28;20201;-66
2021/07/10 07:38:25;;;;;;;573.88;134.32;;;;;;;-144.99;86.30;52329.88;5087624;28;20212;-66
2021/07/10 07:40:51;;;;;;;233.40;52.75;;;;;;;-144.99;86.70;52289.13;5081205;28;20236;-66
2021/07/10 07:43:18;;;;;;;556.88;123.32;;;;;;;-144.99;86.02;52325.81;5083863;28;20215;-66
2021/07/10 07:45:44;;;;;;;391.55;84.75;;;;;;;-144.99;86.25;52313.56;5081606;28;20230;-66
2021/07/10 07:48:11;;;;;;;393.23;84.85;;;;;;;-144.99;85.29;52272.81;5101009;28;20204;-66
2021/07/10 07:50:38;;;;;;;392.98;83.45;;;;;;;-144.99;84.96;52285.03;5078411;28;20588;-66
2021/07/10 07:53:04;;;;;;;571.22;121.45;;;;;;;-144.99;83.93;52289.13;5080621;28;20595;-66
2021/07/10 07:55:33;;;;;;;576.88;130.68;;;;;;;-144.99;82.78;52317.66;5090585;28;20232;-65
2021/07/10 07:57:59;;;;;;;242.38;60.22;;;;;;;-144.99;81.31;52319.69;5081285;28;20217;-64
2021/07/10 08:00:26;;;;;;;614.05;147.30;;;;;;;-144.99;81.69;52236.13;5080327;28;20243;-64
2021/07/10 08:02:52;;;;;;;621.35;136.13;;;;;;;-144.99;81.32;52309.50;5084245;28;20208;-64
2021/07/10 08:05:19;;;;;;;245.23;47.03;;;;;;;-144.99;81.35;52301.34;5081522;28;20216;-64
2021/07/10 08:07:46;;;;;;;416.52;78.90;;;;;;;-144.99;81.31;52317.66;5090171;28;20367;-63
2021/07/10 08:10:16;;;;;;;609.22;112.20;;;;;;;-144.99;81.29;52301.34;5090353;28;20232;-63
2021/07/10 08:12:48;;;;;;;640.00;122.68;;;;;;;-144.99;80.47;52289.13;5083906;28;20201;-63
2021/07/10 08:15:15;;;;;;;658.75;132.63;;;;;;;-144.99;80.15;52264.66;5083629;28;20634;-63
2021/07/10 08:17:42;;;;;;;478.52;98.40;;;;;;;-144.99;79.61;52276.88;5089689;28;20212;-63
2021/07/10 08:20:10;;;;;;;259.52;49.72;;;;;;;-144.99;79.38;52289.13;5089731;28;20234;-63
2021/07/10 08:22:36;;;;;;;79.32;20.23;;;;;;;-144.99;79.20;52309.50;5090196;28;20212;-63
2021/07/10 08:25:05;;;;;;;445.75;79.95;;;;;;;-144.99;79.47;52338.03;5090150;28;20211;-63
2021/07/10 08:27:32;;;;;;;691.40;136.80;;;;;;;-144.99;79.85;52319.69;5085869;28;20211;-63
2021/07/10 08:30:01;;;;;;;473.25;89.57;;;;;;;-144.99;80.07;52311.53;5081707;28;20713;-63
2021/07/10 08:32:28;;;;;;;669.92;114.30;;;;;;;-144.99;80.08;52309.50;5088077;28;20207;-63
2021/07/10 08:34:54;;;;;;;699.15;134.57;;;;;;;-144.99;80.31;52342.09;5090198;28;20228;-65
2021/07/10 08:37:22;;;;;;;469.13;79.15;;;;;;;-144.99;79.80;52333.94;5090581;28;20216;-65
2021/07/10 08:39:48;;;;;;;81.85;22.63;;;;;;;-144.99;79.22;52333.94;5089056;28;20248;-66
2021/07/10 08:42:15;;;;;;;462.85;79.85;;;;;;;-144.99;78.93;52325.81;5089826;28;20731;-65
2021/07/10 08:44:42;;;;;;;80.82;21.23;;;;;;;-144.99;78.76;52276.88;5089944;28;20203;-66
2021/07/10 08:47:14;;;;;;;18.00;11.80;;;;;;;-144.99;78.05;52252.44;5090161;28;20246;-66
2021/07/10 08:49:41;;;;;;;444.27;76.63;;;;;;;-144.99;77.62;52280.97;5080418;28;20487;-65
2021/07/10 08:52:08;;;;;;;453.55;78.55;;;;;;;-144.99;76.86;52276.88;5090155;28;20218;-65
2021/07/10 08:54:35;;;;;;;17.85;14.50;;;;;;;-144.99;75.57;52268.72;5089517;28;20220;-66
2021/07/10 08:57:02;;;;;;;416.77;78.22;;;;;;;-144.99;75.27;52285.03;5090186;28;20209;-65
2021/07/10 08:59:29;;;;;;;447.00;79.47;;;;;;;-144.99;74.18;52227.97;5080399;28;20243;-66
2021/07/10 09:01:57;;;;;;;434.50;79.23;;;;;;;-144.99;74.32;52268.72;5075818;28;20261;-66
2021/07/10 09:04:25;;;;;;;84.80;26.63;;;;;;;-144.99;73.94;52236.13;5089229;28;20630;-65
2021/07/10 09:06:52;;;;;;;484.13;81.20;;;;;;;-144.99;74.07;52252.44;5090249;28;20208;-66
2021/07/10 09:09:19;;;;;;;477.02;82.13;;;;;;;-144.99;73.27;52276.88;5088433;28;20234;-66
2021/07/10 09:11:59;;;;;;;469.00;81.82;;;;;;;-144.99;74.23;52268.72;5089574;28;20215;-68
2021/07/10 09:14:29;;;;;;;29.15;26.33;;;;;;;-144.99;74.08;52293.19;5088802;28;20271;-66
2021/07/10 09:16:56;;;;;;;457.33;79.32;;;;;;;-144.99;73.59;52270.78;5089684;28;20230;-66
2021/07/10 09:19:26;;;;;;;467.27;82.53;;;;;;;-144.99;73.97;52340.06;5080963;28;20228;-66
2021/07/10 09:21:54;;;;;;;701.10;116.00;;;;;;;-144.99;74.09;52301.34;5083416;28;20204;-65
2021/07/10 09:24:28;;;;;;;655.23;108.87;;;;;;;-144.99;73.09;52276.88;5089528;28;20633;-65
2021/07/10 09:26:56;;;;;;;31.67;28.77;;;;;;;-144.99;72.54;52236.13;5089257;28;20661;-65
2021/07/10 09:29:25;;;;;;;425.77;78.17;;;;;;;-144.99;72.43;52252.44;5088873;28;20233;-66
2021/07/10 09:31:56;;;;;;;31.48;28.60;;;;;;;-144.99;71.86;52252.44;5076815;28;20639;-66
2021/07/10 09:34:28;;;;;;;430.17;82.27;;;;;;;-144.99;71.41;52232.03;5088891;28;20232;-66
2021/07/10 09:37:00;;;;;;;31.33;28.63;;;;;;;-144.99;69.98;52256.50;5089711;28;20626;-66
2021/07/10 09:39:28;;;;;;;383.53;84.23;;;;;;;-144.99;70.14;52264.66;5088637;28;20661;-66
2021/07/10 09:41:56;;;;;;;420.67;81.87;;;;;;;-144.99;68.15;52221.84;5077484;28;20633;-66
2021/07/10 09:44:23;;;;;;;668.13;120.30;;;;;;;-144.99;68.27;52236.13;5089132;28;20618;-66
2021/07/10 09:46:49;;;;;;;30.48;27.85;;;;;;;-144.99;68.08;52248.34;5089908;28;20626;-65
2021/07/10 09:49:29;;;;;;;469.93;82.90;;;;;;;-144.99;68.36;52223.88;5089389;28;20232;-66
2021/07/10 09:52:06;;;;;;;433.17;86.73;;;;;;;-144.99;68.30;52276.88;5080024;28;20728;-66
2021/07/10 09:54:34;;;;;;;600.87;108.27;;;;;;;-144.99;68.05;52248.34;5072414;28;20677;-66
2021/07/10 09:57:10;;;;;;;28.23;25.80;;;;;;;-144.99;67.84;52264.66;5089543;28;20988;-65
2021/07/10 09:59:39;;;;;;;204.23;56.07;;;;;;;-144.99;67.51;52285.03;5089397;28;21140;-65
2021/07/10 10:02:33;;;;;;;363.93;80.23;;;;;;;-144.99;66.93;52256.50;5087661;28;20653;-65
2021/07/10 10:05:02;;;;;;;375.77;81.73;;;;;;;-144.99;66.47;52260.56;5087137;28;20649;-65
2021/07/10 10:07:42;;;;;;;545.50;107.53;;;;;;;-144.99;66.30;52227.97;5089374;28;20626;-65
2021/07/10 10:10:09;;;;;;;556.37;108.93;;;;;;;-144.99;66.16;52240.19;5089150;28;20650;-65
2021/07/10 10:12:36;;;;;;;22.47;20.33;;;;;;;-144.99;66.33;52232.03;5088135;28;20622;-65
2021/07/10 10:15:08;;;;;;;20.43;18.33;;;;;;;-144.99;65.23;52203.50;5088014;28;20662;-65
2021/07/10 10:17:36;;;;;;;315.17;82.53;;;;;;;-144.99;64.65;52193.31;5088995;28;20630;-65
2021/07/10 10:20:04;;;;;;;21.20;19.13;;;;;;;-144.99;61.49;52211.66;5089125;28;21060;-66
2021/07/10 10:22:32;;;;;;;306.90;78.73;;;;;;;-144.99;61.57;52236.13;5089146;28;20632;-66
2021/07/10 10:24:59;;;;;;;315.00;78.80;;;;;;;-144.99;61.17;52256.50;5089875;28;20622;-66
2021/07/10 10:27:27;;;;;;;447.40;110.30;;;;;;;-144.99;61.10;52195.34;5092086;28;20986;-66
2021/07/10 10:29:55;;;;;;;438.00;108.43;;;;;;;-144.99;59.74;52248.34;5092405;28;20654;-67
2021/07/10 10:32:23;;;;;;;17.17;15.13;;;;;;;-144.99;59.92;52174.97;5091682;28;20626;-65
2021/07/10 10:34:51;;;;;;;298.03;78.77;;;;;;;-144.99;60.06;52174.97;5086700;28;20709;-66
2021/07/10 10:37:19;;;;;;;15.53;13.43;;;;;;;-144.99;59.02;52185.16;5077178;28;20704;-65
2021/07/10 10:39:47;;;;;;;294.27;78.53;;;;;;;-144.99;56.84;52189.25;5092016;28;20685;-66
2021/07/10 10:42:18;;;;;;;13.03;9.80;;;;;;;-144.99;54.93;52207.59;5092079;28;20622;-65
2021/07/10 10:44:46;;;;;;;256.83;75.10;;;;;;;-144.99;56.26;52234.09;5091874;28;20626;-66
2021/07/10 10:47:13;;;;;;;12.63;9.70;;;;;;;-144.99;57.03;52221.84;5078691;28;21140;-65
2021/07/10 10:49:43;;;;;;;150.57;45.53;;;;;;;-144.99;57.49;52260.56;5092133;28;20657;-65